Alvena, Canada
Current Conditions -  °F | °C
As of 3:00 AM on Saturday 29 Nov 2014 (Local Time) from CYXE Reporting Station
Light Snow Light Snow  
Wind Chill: -23°   Ceiling: 2100
Heat Index: -6°   Visibility: 4mi
Dew Point: -9°   Wind: 10mph
Humidity: 84%   Direction: 350°N
Pressure: 29.68"   Gusts: NA
Location:  52.52°N, 106.02°W
Report Text: CYXE 290900Z 35009KT 4SM -SN DRSN SCT009 OVC021 M21/M23 A2968 RMK SC3SC5 /S01/ SLP101
Loading
Personal Weather Stations






























Interactive Weather Map New forecast layout! Learn more

10-Day Weather Forecast

Advertisements
Track Severe Weather on mobile